createdAt,value
2022-09-28T00:01:19.139Z,3.55
2022-09-28T00:03:47.310Z,3.60
2022-09-28T00:06:18.728Z,3.13
2022-09-28T00:08:45.889Z,3.28
2022-09-28T00:11:17.968Z,3.13
2022-09-28T00:13:50.358Z,2.72
2022-09-28T00:16:19.685Z,3.20
2022-09-28T00:18:47.172Z,2.88
2022-09-28T00:21:25.542Z,2.92
2022-09-28T00:24:13.032Z,2.63
2022-09-28T00:26:51.476Z,2.67
2022-09-28T00:29:20.675Z,2.42
2022-09-28T00:31:48.574Z,2.50
2022-09-28T00:34:16.543Z,2.30
2022-09-28T00:36:46.130Z,2.80
2022-09-28T00:39:15.507Z,2.38
2022-09-28T00:41:43.034Z,2.17
2022-09-28T00:44:37.062Z,2.50
2022-09-28T00:47:45.594Z,2.20
2022-09-28T00:50:33.015Z,2.17
2022-09-28T00:53:02.425Z,2.42
2022-09-28T00:55:46.275Z,2.30
2022-09-28T00:58:18.645Z,2.05
2022-09-28T01:00:45.827Z,1.95
2022-09-28T01:03:16.879Z,2.03
2022-09-28T01:05:44.843Z,2.08
2022-09-28T01:08:13.433Z,2.10
2022-09-28T01:10:41.261Z,2.33
2022-09-28T01:13:08.109Z,1.80
2022-09-28T01:16:08.273Z,2.03
2022-09-28T01:19:02.190Z,2.10
2022-09-28T01:21:50.386Z,2.17
2022-09-28T01:24:32.422Z,2.05
2022-09-28T01:27:07.070Z,1.88
2022-09-28T01:29:58.577Z,2.05
2022-09-28T01:33:01.643Z,2.42
2022-09-28T01:35:48.220Z,1.92
2022-09-28T01:40:52.067Z,2.30
2022-09-28T01:43:27.827Z,2.10
2022-09-28T01:46:01.868Z,2.25
2022-09-28T01:48:46.923Z,2.45
2022-09-28T01:51:24.077Z,2.50
2022-09-28T01:53:56.997Z,2.35
2022-09-28T01:56:34.697Z,2.65
2022-09-28T01:59:21.329Z,3.00
2022-09-28T02:02:00.855Z,2.40
2022-09-28T02:04:41.773Z,2.58
2022-09-28T02:07:09.612Z,3.20
2022-09-28T02:09:47.819Z,2.53
2022-09-28T02:12:35.309Z,2.70
2022-09-28T02:15:29.173Z,2.28
2022-09-28T02:17:56.480Z,2.53
2022-09-28T02:20:24.354Z,3.03
2022-09-28T02:22:55.825Z,3.15
2022-09-28T02:25:46.572Z,3.10
2022-09-28T02:28:17.243Z,2.55
2022-09-28T02:30:48.845Z,3.60
2022-09-28T02:33:32.003Z,2.55
2022-09-28T02:36:00.700Z,2.72
2022-09-28T02:38:30.361Z,3.28
2022-09-28T02:41:07.926Z,3.10
2022-09-28T02:44:07.493Z,3.15
2022-09-28T02:46:42.240Z,2.90
2022-09-28T02:49:23.758Z,3.15
2022-09-28T02:52:01.460Z,4.50
2022-09-28T02:54:48.290Z,2.92
2022-09-28T02:57:38.588Z,3.22
2022-09-28T03:00:13.703Z,3.03
2022-09-28T03:02:46.455Z,3.30
2022-09-28T03:05:23.596Z,3.40
2022-09-28T03:07:55.618Z,3.15
2022-09-28T03:10:31.500Z,3.85
2022-09-28T03:12:59.582Z,4.03
2022-09-28T03:15:30.544Z,3.88
2022-09-28T03:17:58.518Z,4.00
2022-09-28T03:20:37.772Z,5.15
2022-09-28T03:25:51.700Z,5.38
2022-09-28T03:28:18.716Z,5.72
2022-09-28T03:30:48.548Z,5.20
2022-09-28T03:33:15.749Z,5.60
2022-09-28T03:35:45.985Z,5.70
2022-09-28T03:38:13.001Z,5.68
2022-09-28T03:40:43.292Z,5.55
2022-09-28T03:43:10.683Z,5.90
2022-09-28T03:45:41.091Z,6.15
2022-09-28T03:48:08.253Z,5.53
2022-09-28T03:50:37.155Z,6.00
2022-09-28T03:53:04.359Z,6.47
2022-09-28T03:55:31.186Z,6.47
2022-09-28T03:58:01.218Z,5.43
2022-09-28T04:00:29.885Z,6.38
2022-09-28T04:02:57.339Z,6.38
2022-09-28T04:05:25.491Z,6.43
2022-09-28T04:07:56.195Z,5.88
2022-09-28T04:10:29.145Z,6.78
2022-09-28T04:12:57.429Z,6.75
2022-09-28T04:15:25.368Z,6.97
2022-09-28T04:17:52.746Z,6.97
2022-09-28T04:20:45.532Z,6.78
2022-09-28T04:23:13.859Z,7.25
2022-09-28T04:25:43.796Z,6.38
2022-09-28T04:28:32.331Z,7.35
2022-09-28T04:30:59.516Z,7.50
2022-09-28T04:33:29.499Z,6.70
2022-09-28T04:35:56.447Z,6.63
2022-09-28T04:38:41.790Z,6.53
2022-09-28T04:41:12.254Z,6.43
2022-09-28T04:43:40.155Z,6.05
2022-09-28T04:46:07.146Z,6.30
2022-09-28T04:48:44.322Z,6.80
2022-09-28T04:51:22.470Z,6.35
2022-09-28T04:53:49.653Z,6.35
2022-09-28T04:56:19.269Z,6.03
2022-09-28T04:58:50.415Z,6.35
2022-09-28T05:01:24.359Z,6.68
2022-09-28T05:04:24.983Z,5.30
2022-09-28T05:07:14.035Z,5.68
2022-09-28T05:09:40.899Z,5.15
2022-09-28T05:12:09.485Z,5.45
2022-09-28T05:14:39.735Z,5.28
2022-09-28T05:17:06.591Z,5.95
2022-09-28T05:19:39.872Z,6.25
2022-09-28T05:22:13.577Z,5.75
2022-09-28T05:24:44.866Z,5.65
2022-09-28T05:27:12.361Z,5.82
2022-09-28T05:29:44.647Z,5.93
2022-09-28T05:32:30.230Z,6.63
2022-09-28T05:35:21.817Z,5.32
2022-09-28T05:37:52.324Z,5.90
2022-09-28T05:40:21.244Z,5.70
2022-09-28T05:42:48.229Z,5.75
2022-09-28T05:45:18.614Z,6.00
2022-09-28T05:47:48.860Z,6.00
2022-09-28T05:50:18.816Z,5.80
2022-09-28T05:52:46.947Z,5.97
2022-09-28T05:55:14.206Z,6.40
2022-09-28T05:57:41.846Z,5.35
2022-09-28T06:00:09.589Z,6.63
2022-09-28T06:03:09.152Z,6.80
2022-09-28T06:08:05.709Z,7.38
2022-09-28T06:10:34.271Z,6.63
2022-09-28T06:13:01.800Z,6.43
2022-09-28T06:15:31.766Z,6.03
2022-09-28T06:18:06.095Z,7.65
2022-09-28T06:20:55.827Z,6.78
2022-09-28T06:23:31.492Z,6.97
2022-09-28T06:25:59.975Z,6.32
2022-09-28T06:28:30.394Z,6.60
2022-09-28T06:31:02.406Z,7.80
2022-09-28T06:33:30.934Z,7.35
2022-09-28T06:36:08.133Z,6.97
2022-09-28T06:38:39.570Z,6.68
2022-09-28T06:41:12.797Z,6.53
2022-09-28T06:43:41.704Z,6.88
2022-09-28T06:46:30.892Z,7.07
2022-09-28T06:49:19.433Z,6.32
2022-09-28T06:52:05.167Z,6.60
2022-09-28T06:54:50.978Z,6.40
2022-09-28T06:57:23.099Z,7.20
2022-09-28T06:59:57.232Z,6.72
2022-09-28T07:02:26.221Z,6.93
2022-09-28T07:05:29.501Z,7.68
2022-09-28T07:08:18.421Z,6.28
2022-09-28T07:11:08.025Z,7.35
2022-09-28T07:13:50.713Z,7.63
2022-09-28T07:18:54.129Z,6.35
2022-09-28T07:21:28.851Z,6.80
2022-09-28T07:24:00.062Z,6.75
2022-09-28T07:27:05.681Z,7.30
2022-09-28T07:29:36.166Z,7.18
2022-09-28T07:34:59.416Z,7.03
2022-09-28T07:37:45.266Z,7.45
2022-09-28T07:40:31.570Z,6.93
2022-09-28T07:43:08.536Z,6.25
2022-09-28T07:45:38.467Z,6.05
2022-09-28T07:48:05.848Z,5.78
2022-09-28T07:50:32.987Z,6.65
2022-09-28T07:53:06.319Z,6.07
2022-09-28T07:56:02.247Z,6.07
2022-09-28T07:58:41.634Z,6.53
2022-09-28T08:01:31.767Z,6.18
2022-09-28T08:04:01.453Z,6.35
2022-09-28T08:06:30.514Z,6.90
2022-09-28T08:09:01.981Z,7.10
2022-09-28T08:12:07.721Z,7.18
2022-09-28T08:14:41.432Z,7.38
2022-09-28T08:17:24.468Z,6.97
2022-09-28T08:20:14.838Z,6.60
2022-09-28T08:22:45.114Z,7.28
2022-09-28T08:25:15.177Z,6.50
2022-09-28T08:27:45.473Z,6.70
2022-09-28T08:30:16.358Z,6.90
2022-09-28T08:32:52.768Z,6.40
2022-09-28T08:35:40.244Z,7.43
2022-09-28T08:38:13.847Z,6.90
2022-09-28T08:41:29.664Z,6.68
2022-09-28T08:44:25.142Z,6.65
2022-09-28T08:47:53.020Z,6.60
2022-09-28T08:50:33.936Z,6.80
2022-09-28T08:53:24.484Z,6.60
2022-09-28T08:56:18.501Z,7.22
2022-09-28T08:58:52.732Z,7.50
2022-09-28T09:01:21.404Z,7.13
2022-09-28T09:03:49.729Z,6.63
2022-09-28T09:07:14.586Z,6.65
2022-09-28T09:10:12.371Z,7.38
2022-09-28T09:13:26.674Z,6.70
2022-09-28T09:16:12.047Z,6.88
2022-09-28T09:19:03.499Z,7.07
2022-09-28T09:21:51.651Z,7.85
2022-09-28T09:24:27.574Z,6.97
2022-09-28T09:27:35.937Z,7.22
2022-09-28T09:30:21.907Z,7.10
2022-09-28T09:33:56.393Z,7.40
2022-09-28T09:37:03.303Z,7.68
2022-09-28T09:39:58.226Z,6.63
2022-09-28T09:43:18.888Z,7.03
2022-09-28T09:46:27.808Z,6.47
2022-09-28T09:49:21.549Z,6.90
2022-09-28T09:52:27.599Z,6.85
2022-09-28T09:55:30.031Z,6.72
2022-09-28T09:58:40.644Z,6.53
2022-09-28T10:01:33.749Z,6.45
2022-09-28T10:04:36.178Z,6.72
2022-09-28T10:07:23.539Z,7.38
2022-09-28T10:09:55.373Z,7.53
2022-09-28T10:12:33.794Z,7.55
2022-09-28T10:15:05.657Z,8.07
2022-09-28T10:17:37.072Z,7.97
2022-09-28T10:20:28.725Z,7.80
2022-09-28T10:23:06.812Z,8.20
2022-09-28T10:25:37.968Z,7.25
2022-09-28T10:28:07.573Z,7.88
2022-09-28T10:30:44.344Z,6.68
2022-09-28T10:33:33.337Z,7.65
2022-09-28T10:36:01.934Z,7.22
2022-09-28T10:38:33.466Z,7.25
2022-09-28T10:41:29.474Z,8.02
2022-09-28T10:44:06.764Z,7.25
2022-09-28T10:47:05.648Z,7.43
2022-09-28T10:49:46.836Z,7.15
2022-09-28T10:52:34.330Z,7.85
2022-09-28T10:55:02.006Z,7.07
2022-09-28T10:57:34.814Z,7.88
2022-09-28T11:00:31.897Z,7.38
2022-09-28T11:03:31.426Z,7.53
2022-09-28T11:06:09.677Z,7.80
2022-09-28T11:08:47.960Z,8.30
2022-09-28T11:11:26.313Z,7.03
2022-09-28T11:14:05.656Z,7.72
2022-09-28T11:16:37.315Z,6.68
2022-09-28T11:19:32.734Z,6.93
2022-09-28T11:22:01.785Z,6.55
2022-09-28T11:24:42.055Z,7.28
2022-09-28T11:27:25.815Z,7.55
2022-09-28T11:30:09.526Z,8.05
2022-09-28T11:32:52.040Z,6.88
2022-09-28T11:35:54.844Z,7.35
2022-09-28T11:38:50.055Z,7.25
2022-09-28T11:42:06.467Z,6.67
2022-09-28T11:44:41.389Z,6.53
2022-09-28T11:47:37.013Z,6.22
2022-09-28T11:50:33.988Z,7.60
2022-09-28T11:53:42.415Z,5.97
2022-09-28T11:56:40.580Z,6.28
2022-09-28T11:59:59.440Z,5.97
2022-09-28T12:02:36.916Z,6.00
2022-09-28T12:05:26.025Z,6.25
2022-09-28T12:08:19.666Z,5.57
2022-09-28T12:11:18.348Z,6.05
2022-09-28T12:19:37.283Z,5.53
2022-09-28T12:22:15.245Z,5.15
2022-09-28T12:24:50.502Z,5.22
2022-09-28T12:27:26.528Z,4.83
2022-09-28T12:30:26.100Z,4.72
2022-09-28T12:33:06.708Z,5.30
2022-09-28T12:35:53.533Z,5.20
2022-09-28T12:38:50.818Z,5.22
2022-09-28T12:41:43.605Z,5.32
2022-09-28T12:44:26.129Z,4.90
2022-09-28T12:47:16.546Z,5.28
2022-09-28T12:53:09.167Z,4.50
2022-09-28T12:55:50.033Z,4.63
2022-09-28T12:58:46.931Z,4.35
2022-09-28T13:01:25.611Z,3.55
2022-09-28T13:04:32.584Z,3.95
2022-09-28T13:07:11.224Z,3.67
2022-09-28T13:10:20.334Z,3.15
2022-09-28T13:17:32.675Z,3.95
2022-09-28T13:20:31.992Z,3.80
2022-09-28T13:23:15.801Z,3.58
2022-09-28T13:26:02.549Z,3.60
2022-09-28T13:28:38.058Z,3.40
2022-09-28T13:31:12.624Z,3.13
2022-09-28T13:33:44.112Z,3.33
2022-09-28T13:36:35.677Z,2.50
2022-09-28T13:39:04.904Z,2.92
2022-09-28T13:41:40.678Z,3.03
2022-09-28T13:44:14.113Z,2.47
2022-09-28T13:46:50.195Z,2.70
2022-09-28T13:49:30.689Z,2.60
2022-09-28T13:52:19.105Z,2.38
2022-09-28T13:55:17.055Z,2.03
2022-09-28T13:58:14.008Z,2.42
2022-09-28T14:01:14.746Z,2.50
2022-09-28T14:04:25.798Z,2.63
2022-09-28T14:07:19.001Z,2.70
2022-09-28T14:14:10.959Z,2.38
2022-09-28T14:16:50.679Z,2.30
2022-09-28T14:19:35.471Z,2.20
2022-09-28T14:22:15.717Z,2.10
2022-09-28T14:25:01.139Z,1.92
2022-09-28T14:27:38.671Z,1.75
2022-09-28T14:30:16.867Z,1.70
2022-09-28T14:32:59.211Z,1.67
2022-09-28T14:35:45.090Z,1.60
2022-09-28T14:38:39.511Z,1.50
2022-09-28T14:41:12.663Z,1.00
2022-09-28T14:43:45.654Z,1.00
2022-09-28T14:46:15.444Z,1.23
2022-09-28T14:48:58.538Z,1.25
2022-09-28T14:51:28.487Z,1.40
2022-09-28T14:54:16.214Z,1.40
2022-09-28T14:56:53.611Z,1.30
2022-09-28T14:59:39.697Z,1.30
2022-09-28T15:02:35.847Z,1.20
2022-09-28T15:05:14.541Z,1.13
2022-09-28T15:07:55.173Z,1.30
2022-09-28T15:10:27.235Z,1.50
2022-09-28T15:12:57.265Z,1.23
2022-09-28T15:15:34.941Z,1.63
2022-09-28T15:18:14.805Z,1.38
2022-09-28T15:20:47.127Z,1.45
2022-09-28T15:23:40.149Z,1.45
2022-09-28T15:26:33.349Z,1.50
2022-09-28T15:29:06.757Z,1.52
2022-09-28T15:31:41.059Z,1.50
2022-09-28T15:34:50.129Z,1.80
2022-09-28T15:37:41.294Z,1.60
2022-09-28T15:40:15.549Z,1.38
2022-09-28T15:42:45.232Z,1.60
2022-09-28T15:45:30.977Z,2.00
2022-09-28T15:48:40.700Z,1.95
2022-09-28T15:51:13.825Z,2.03
2022-09-28T15:54:09.419Z,1.67
2022-09-28T15:56:54.992Z,2.03
2022-09-28T15:59:34.733Z,3.03
2022-09-28T16:02:14.550Z,2.10
2022-09-28T16:04:50.773Z,1.88
2022-09-28T16:10:03.265Z,1.95
2022-09-28T16:12:54.023Z,2.10
2022-09-28T16:15:37.006Z,2.10
2022-09-28T16:18:12.929Z,1.92
2022-09-28T16:20:41.025Z,1.70
2022-09-28T16:23:17.066Z,1.92
2022-09-28T16:25:56.051Z,1.88
2022-09-28T16:28:28.843Z,2.33
2022-09-28T16:31:13.066Z,1.63
2022-09-28T16:33:55.645Z,1.70
2022-09-28T16:36:27.365Z,1.83
2022-09-28T16:38:57.253Z,1.73
2022-09-28T16:41:28.874Z,1.90
2022-09-28T16:44:02.203Z,1.73
2022-09-28T16:46:37.419Z,2.20
2022-09-28T16:49:07.005Z,2.20
2022-09-28T16:51:34.214Z,2.42
2022-09-28T16:54:37.595Z,2.85
2022-09-28T16:57:06.235Z,2.55
2022-09-28T16:59:35.696Z,2.92
2022-09-28T17:02:02.574Z,2.60
2022-09-28T17:04:38.600Z,2.95
2022-09-28T17:07:05.560Z,3.13
2022-09-28T17:09:32.401Z,2.72
2022-09-28T17:11:59.587Z,3.60
2022-09-28T17:14:31.669Z,3.80
2022-09-28T17:17:09.678Z,4.07
2022-09-28T17:19:38.416Z,4.13
2022-09-28T17:22:06.380Z,4.00
2022-09-28T17:24:33.596Z,3.72
2022-09-28T17:27:01.005Z,3.85
2022-09-28T17:29:27.977Z,3.92
2022-09-28T17:31:57.231Z,4.38
2022-09-28T17:34:24.297Z,4.85
2022-09-28T17:36:52.184Z,5.20
2022-09-28T17:39:19.879Z,4.88
2022-09-28T17:41:46.990Z,4.53
2022-09-28T17:44:16.036Z,4.25
2022-09-28T17:46:46.400Z,4.68
2022-09-28T17:49:16.524Z,5.10
2022-09-28T17:51:43.569Z,4.32
2022-09-28T17:54:11.062Z,4.40
2022-09-28T17:56:37.975Z,5.15
2022-09-28T17:59:15.761Z,5.93
2022-09-28T18:01:43.154Z,6.32
2022-09-28T18:04:22.992Z,6.60
2022-09-28T18:06:59.732Z,6.38
2022-09-28T18:09:27.019Z,6.28
2022-09-28T18:12:01.142Z,5.60
2022-09-28T18:14:35.841Z,5.40
2022-09-28T18:17:03.018Z,5.38
2022-09-28T18:19:32.177Z,5.70
2022-09-28T18:22:01.328Z,4.90
2022-09-28T18:24:31.222Z,5.00
2022-09-28T18:26:58.455Z,5.60
2022-09-28T18:29:27.335Z,5.07
2022-09-28T18:31:58.627Z,5.20
2022-09-28T18:34:25.492Z,4.75
2022-09-28T18:36:52.348Z,4.80
2022-09-28T18:39:19.460Z,6.10
2022-09-28T18:41:49.692Z,6.15
2022-09-28T18:44:19.836Z,5.97
2022-09-28T18:46:47.077Z,5.97
2022-09-28T18:49:16.456Z,4.75
2022-09-28T18:51:45.835Z,5.07
2022-09-28T18:54:13.137Z,5.05
2022-09-28T18:56:40.292Z,4.90
2022-09-28T18:59:12.187Z,5.35
2022-09-28T19:01:43.333Z,6.43
2022-09-28T19:04:11.278Z,5.07
2022-09-28T19:06:45.025Z,5.45
2022-09-28T19:09:14.625Z,5.43
2022-09-28T19:11:44.235Z,6.07
2022-09-28T19:14:14.904Z,6.47
2022-09-28T19:16:42.658Z,6.43
2022-09-28T19:19:12.763Z,6.82
2022-09-28T19:21:41.338Z,6.60
2022-09-28T19:24:09.640Z,6.68
2022-09-28T19:26:36.513Z,6.40
2022-09-28T19:29:03.582Z,5.40
2022-09-28T19:31:30.980Z,4.95
2022-09-28T19:33:58.134Z,5.32
2022-09-28T19:36:28.536Z,4.72
2022-09-28T19:38:57.915Z,4.65
2022-09-28T19:41:49.407Z,4.88
2022-09-28T19:44:26.110Z,5.00
2022-09-28T19:47:06.647Z,5.47
2022-09-28T19:49:38.630Z,5.70
2022-09-28T19:52:14.287Z,5.70
2022-09-28T19:54:44.446Z,5.72
2022-09-28T19:57:13.177Z,4.97
2022-09-28T19:59:40.053Z,4.45
2022-09-28T20:02:08.383Z,4.32
2022-09-28T20:04:35.482Z,5.07
2022-09-28T20:07:04.204Z,4.60
2022-09-28T20:09:32.369Z,5.13
2022-09-28T20:11:59.177Z,5.18
2022-09-28T20:14:31.211Z,5.68
2022-09-28T20:17:01.180Z,5.28
2022-09-28T20:19:30.869Z,5.63
2022-09-28T20:21:59.458Z,5.50
2022-09-28T20:24:28.819Z,5.00
2022-09-28T20:26:55.933Z,5.00
2022-09-28T20:29:24.206Z,4.57
2022-09-28T20:31:51.824Z,4.68
2022-09-28T20:34:21.540Z,5.18
2022-09-28T20:36:48.833Z,5.07
2022-09-28T20:39:16.239Z,5.00
2022-09-28T20:41:43.057Z,4.60
2022-09-28T20:44:10.042Z,5.00
2022-09-28T20:46:39.808Z,5.13
2022-09-28T20:49:07.691Z,4.72
2022-09-28T20:51:34.962Z,4.90
2022-09-28T20:54:02.191Z,5.57
2022-09-28T20:56:39.790Z,5.07
2022-09-28T20:59:14.815Z,5.00
2022-09-28T21:01:42.028Z,4.32
2022-09-28T21:04:12.980Z,4.78
2022-09-28T21:06:42.108Z,4.97
2022-09-28T21:09:13.551Z,4.88
2022-09-28T21:11:41.718Z,5.40
2022-09-28T21:14:10.410Z,5.65
2022-09-28T21:16:37.633Z,20.00
2022-09-28T21:19:06.708Z,15.65
2022-09-28T21:21:33.506Z,13.43
2022-09-28T21:24:00.662Z,14.35
2022-09-28T21:26:31.452Z,13.85
2022-09-28T21:29:04.253Z,13.98
2022-09-28T21:31:45.609Z,13.48
2022-09-28T21:34:22.075Z,13.52
2022-09-28T21:36:53.338Z,13.38
2022-09-28T21:39:27.390Z,13.00
2022-09-28T21:41:54.322Z,13.38
2022-09-28T21:44:21.321Z,13.13
2022-09-28T21:46:50.652Z,12.77
2022-09-28T21:49:20.324Z,13.55
2022-09-28T21:51:49.299Z,12.60
2022-09-28T21:54:16.166Z,12.75
2022-09-28T21:56:43.098Z,12.23
2022-09-28T21:59:09.899Z,11.98
2022-09-28T22:01:36.858Z,11.50
2022-09-28T22:04:03.780Z,12.75
2022-09-28T22:06:30.685Z,12.48
2022-09-28T22:08:58.046Z,12.38
2022-09-28T22:11:27.544Z,13.13
2022-09-28T22:13:57.241Z,13.18
2022-09-28T22:16:27.352Z,12.93
2022-09-28T22:18:54.429Z,12.68
2022-09-28T22:21:26.973Z,12.82
2022-09-28T22:23:54.049Z,13.18
2022-09-28T22:26:23.632Z,12.45
2022-09-28T22:28:54.859Z,12.40
2022-09-28T22:31:25.180Z,12.70
2022-09-28T22:33:54.439Z,13.73
2022-09-28T22:36:21.451Z,13.32
2022-09-28T22:38:49.080Z,13.25
2022-09-28T22:41:20.610Z,12.95
2022-09-28T22:43:51.688Z,13.10
2022-09-28T22:46:22.324Z,13.27
2022-09-28T22:48:54.454Z,11.70
2022-09-28T22:51:22.407Z,12.68
2022-09-28T22:53:49.553Z,13.35
2022-09-28T22:56:19.652Z,11.75
2022-09-28T22:58:48.927Z,11.77
2022-09-28T23:01:21.786Z,11.45
2022-09-28T23:03:50.032Z,11.52
2022-09-28T23:06:18.594Z,11.13
2022-09-28T23:08:47.326Z,11.60
2022-09-28T23:11:15.412Z,10.63
2022-09-28T23:13:42.631Z,11.18
2022-09-28T23:16:15.014Z,10.70
2022-09-28T23:18:42.478Z,11.20
2022-09-28T23:21:20.274Z,10.82
2022-09-28T23:23:52.448Z,10.55
2022-09-28T23:26:24.965Z,11.38
2022-09-28T23:28:56.182Z,11.00
2022-09-28T23:31:26.461Z,11.45
2022-09-28T23:33:58.356Z,11.55
2022-09-28T23:36:25.726Z,13.82
2022-09-28T23:38:52.969Z,11.85
2022-09-28T23:41:20.049Z,11.90
2022-09-28T23:43:46.925Z,12.10
2022-09-28T23:46:17.286Z,10.98
2022-09-28T23:48:47.244Z,10.98
2022-09-28T23:51:14.149Z,10.93
2022-09-28T23:53:46.454Z,10.73
2022-09-28T23:56:14.673Z,11.30
2022-09-28T23:58:45.040Z,10.15
